createdAt,value
2022-09-12T00:01:14.889Z,15.38
2022-09-12T00:04:17.196Z,15.48
2022-09-12T00:07:19.352Z,15.41
2022-09-12T00:10:21.790Z,15.38
2022-09-12T00:13:23.961Z,15.38
2022-09-12T00:16:28.756Z,15.37
2022-09-12T00:19:31.155Z,15.42
2022-09-12T00:22:33.768Z,15.39
2022-09-12T00:25:42.253Z,15.34
2022-09-12T00:28:45.178Z,15.32
2022-09-12T00:31:48.302Z,15.14
2022-09-12T00:34:50.643Z,15.18
2022-09-12T00:37:52.780Z,15.06
2022-09-12T00:40:55.029Z,15.17
2022-09-12T00:44:02.576Z,15.08
2022-09-12T00:47:26.984Z,14.90
2022-09-12T00:50:29.628Z,14.70
2022-09-12T00:53:32.045Z,14.77
2022-09-12T00:56:35.559Z,14.75
2022-09-12T00:59:46.339Z,14.67
2022-09-12T01:03:04.305Z,14.63
2022-09-12T01:06:15.621Z,14.67
2022-09-12T01:09:21.834Z,14.63
2022-09-12T01:12:24.497Z,14.59
2022-09-12T01:15:27.174Z,14.62
2022-09-12T01:19:02.640Z,14.62
2022-09-12T01:22:37.113Z,14.65
2022-09-12T01:25:42.279Z,14.66
2022-09-12T01:29:03.869Z,14.73
2022-09-12T01:32:14.925Z,14.79
2022-09-12T01:35:41.514Z,14.83
2022-09-12T01:38:59.293Z,14.86
2022-09-12T01:42:24.705Z,14.88
2022-09-12T01:45:33.824Z,14.90
2022-09-12T01:48:41.154Z,14.88
2022-09-12T01:51:53.584Z,14.91
2022-09-12T01:54:58.027Z,14.91
2022-09-12T01:58:19.681Z,14.91
2022-09-12T02:01:29.728Z,14.96
2022-09-12T02:04:57.566Z,14.88
2022-09-12T02:08:14.400Z,14.91
2022-09-12T02:11:16.771Z,14.96
2022-09-12T02:14:25.593Z,14.86
2022-09-12T02:17:30.804Z,14.96
2022-09-12T02:20:49.128Z,15.00
2022-09-12T02:23:58.402Z,14.97
2022-09-12T02:27:08.130Z,14.94
2022-09-12T02:30:14.346Z,15.00
2022-09-12T02:33:50.578Z,14.88
2022-09-12T02:37:24.401Z,14.88
2022-09-12T02:40:26.710Z,14.84
2022-09-12T02:43:29.027Z,14.86
2022-09-12T02:46:40.910Z,14.81
2022-09-12T02:49:44.095Z,14.79
2022-09-12T02:52:46.658Z,14.76
2022-09-12T02:55:48.944Z,14.77
2022-09-12T02:58:52.072Z,14.75
2022-09-12T03:02:20.974Z,14.72
2022-09-12T03:05:31.548Z,14.76
2022-09-12T03:08:45.974Z,14.77
2022-09-12T03:11:54.077Z,14.76
2022-09-12T03:15:02.304Z,14.73
2022-09-12T03:18:22.824Z,14.73
2022-09-12T03:21:45.496Z,14.67
2022-09-12T03:24:50.257Z,14.70
2022-09-12T03:28:06.186Z,14.62
2022-09-12T03:31:15.963Z,14.60
2022-09-12T03:34:18.927Z,14.59
2022-09-12T03:37:21.067Z,14.65
2022-09-12T03:40:23.478Z,14.63
2022-09-12T03:43:25.644Z,14.65
2022-09-12T03:46:27.920Z,14.56
2022-09-12T03:49:30.053Z,14.45
2022-09-12T03:52:32.441Z,14.47
2022-09-12T03:55:34.608Z,14.39
2022-09-12T03:58:37.752Z,14.39
2022-09-12T04:01:41.459Z,14.36
2022-09-12T04:04:44.375Z,14.35
2022-09-12T04:07:46.555Z,14.37
2022-09-12T04:10:48.763Z,14.40
2022-09-12T04:13:51.102Z,14.37
2022-09-12T04:16:53.527Z,14.40
2022-09-12T04:19:57.863Z,14.46
2022-09-12T04:23:00.081Z,14.63
2022-09-12T04:26:03.472Z,14.52
2022-09-12T04:29:05.718Z,14.60
2022-09-12T04:32:07.969Z,14.72
2022-09-12T04:35:12.301Z,14.80
2022-09-12T04:38:14.669Z,14.73
2022-09-12T04:41:31.429Z,14.93
2022-09-12T04:44:33.656Z,15.14
2022-09-12T04:47:36.002Z,15.25
2022-09-12T04:50:38.176Z,15.37
2022-09-12T04:53:41.107Z,15.52
2022-09-12T04:56:48.757Z,15.49
2022-09-12T04:59:51.085Z,15.70
2022-09-12T05:02:53.328Z,15.70
2022-09-12T05:05:56.579Z,15.70
2022-09-12T05:08:59.889Z,15.69
2022-09-12T05:12:04.967Z,15.82
2022-09-12T05:15:08.187Z,15.96
2022-09-12T05:18:10.435Z,16.09
2022-09-12T05:21:15.799Z,16.16
2022-09-12T05:24:27.129Z,16.31
2022-09-12T05:27:33.676Z,16.43
2022-09-12T05:30:35.918Z,16.48
2022-09-12T05:33:42.869Z,16.56
2022-09-12T05:36:46.351Z,16.74
2022-09-12T05:39:48.723Z,16.72
2022-09-12T05:42:51.019Z,16.70
2022-09-12T05:45:53.440Z,16.89
2022-09-12T05:48:57.117Z,17.23
2022-09-12T05:52:00.571Z,17.39
2022-09-12T05:55:03.707Z,17.54
2022-09-12T05:58:13.272Z,17.76
2022-09-12T06:01:25.083Z,17.83
2022-09-12T06:04:30.244Z,18.14
2022-09-12T06:07:34.075Z,18.37
2022-09-12T06:10:37.679Z,18.52
2022-09-12T06:13:42.688Z,18.68
2022-09-12T06:16:58.183Z,18.90
2022-09-12T06:20:14.344Z,19.13
2022-09-12T06:23:54.461Z,19.61
2022-09-12T06:27:00.528Z,19.94
2022-09-12T06:30:04.948Z,20.37
2022-09-12T06:33:08.397Z,20.70
2022-09-12T06:36:19.662Z,20.97
2022-09-12T06:39:35.145Z,21.30
2022-09-12T06:42:37.348Z,21.58
2022-09-12T06:45:40.305Z,21.88
2022-09-12T06:48:42.780Z,22.00
2022-09-12T06:51:45.303Z,22.20
2022-09-12T06:54:50.380Z,22.20
2022-09-12T06:57:58.601Z,22.64
2022-09-12T07:01:09.552Z,23.04
2022-09-12T07:04:14.837Z,22.68
2022-09-12T07:07:21.358Z,23.16
2022-09-12T07:10:34.972Z,23.80
2022-09-12T07:13:39.469Z,24.42
2022-09-12T07:16:42.498Z,24.34
2022-09-12T07:19:54.171Z,24.59
2022-09-12T07:23:03.431Z,24.34
2022-09-12T07:26:17.318Z,24.58
2022-09-12T07:29:41.352Z,25.00
2022-09-12T07:32:45.401Z,25.09
2022-09-12T07:35:48.320Z,25.67
2022-09-12T07:38:58.433Z,25.74
2022-09-12T07:42:00.591Z,25.58
2022-09-12T07:45:02.948Z,25.90
2022-09-12T07:48:07.308Z,26.19
2022-09-12T07:51:11.275Z,25.95
2022-09-12T07:54:13.467Z,25.08
2022-09-12T07:57:17.842Z,24.88
2022-09-12T08:00:20.381Z,24.57
2022-09-12T08:03:23.274Z,24.49
2022-09-12T08:06:28.695Z,24.37
2022-09-12T08:09:31.198Z,24.24
2022-09-12T08:12:34.619Z,24.21
2022-09-12T08:15:36.979Z,23.97
2022-09-12T08:18:40.457Z,23.70
2022-09-12T08:21:43.316Z,23.15
2022-09-12T08:24:46.620Z,22.91
2022-09-12T08:27:51.585Z,22.37
2022-09-12T08:30:54.589Z,22.46
2022-09-12T08:33:58.920Z,22.57
2022-09-12T08:37:04.520Z,22.95
2022-09-12T08:40:08.504Z,22.94
2022-09-12T08:43:31.703Z,23.30
2022-09-12T08:47:14.278Z,24.04
2022-09-12T08:50:20.760Z,24.21
2022-09-12T08:53:25.623Z,24.99
2022-09-12T08:56:31.883Z,25.70
2022-09-12T08:59:46.345Z,26.94
2022-09-12T09:03:07.139Z,27.58
2022-09-12T09:06:42.003Z,27.13
2022-09-12T09:10:08.275Z,26.35
2022-09-12T09:14:17.802Z,26.69
2022-09-12T09:17:31.436Z,27.03
2022-09-12T09:20:44.392Z,25.60
2022-09-12T09:23:53.823Z,26.11
2022-09-12T09:27:23.545Z,25.70
2022-09-12T09:30:35.361Z,25.46
2022-09-12T09:33:37.922Z,25.47
2022-09-12T09:36:50.998Z,24.93
2022-09-12T09:40:14.808Z,24.59
2022-09-12T09:43:24.595Z,24.96
2022-09-12T09:46:27.768Z,24.17
2022-09-12T09:49:33.368Z,24.39
2022-09-12T09:52:39.801Z,24.72
2022-09-12T09:55:57.291Z,24.44
2022-09-12T09:59:42.166Z,24.67
2022-09-12T10:03:08.245Z,24.95
2022-09-12T10:06:30.482Z,25.91
2022-09-12T10:09:38.844Z,26.12
2022-09-12T10:12:44.522Z,26.63
2022-09-12T10:16:05.413Z,26.35
2022-09-12T10:19:41.891Z,26.18
2022-09-12T10:22:48.813Z,26.90
2022-09-12T10:25:57.821Z,26.75
2022-09-12T10:29:16.946Z,27.78
2022-09-12T10:32:30.635Z,26.22
2022-09-12T10:35:45.168Z,27.15
2022-09-12T10:38:59.911Z,26.76
2022-09-12T10:42:03.758Z,27.65
2022-09-12T10:45:17.563Z,27.55
2022-09-12T10:48:37.983Z,31.21
2022-09-12T10:51:42.275Z,32.13
2022-09-12T10:54:45.958Z,33.36
2022-09-12T10:58:25.173Z,31.80
2022-09-12T11:01:45.261Z,31.47
2022-09-12T11:05:22.938Z,32.74
2022-09-12T11:08:40.068Z,33.58
2022-09-12T11:12:02.213Z,30.43
2022-09-12T11:15:26.903Z,29.04
2022-09-12T11:19:10.476Z,27.18
2022-09-12T11:22:43.714Z,26.42
2022-09-12T11:26:16.539Z,26.63
2022-09-12T11:29:52.291Z,26.75
2022-09-12T11:33:32.784Z,26.24
2022-09-12T11:36:47.117Z,30.84
2022-09-12T11:39:55.587Z,32.49
2022-09-12T11:43:06.363Z,33.53
2022-09-12T11:46:18.508Z,35.41
2022-09-12T11:49:47.329Z,35.88
2022-09-12T11:52:51.253Z,32.05
2022-09-12T11:55:56.107Z,30.33
2022-09-12T11:59:10.423Z,28.97
2022-09-12T12:02:28.275Z,27.75
2022-09-12T12:06:01.332Z,27.00
2022-09-12T12:09:05.056Z,26.29
2022-09-12T12:12:11.513Z,25.91
2022-09-12T12:15:16.310Z,25.44
2022-09-12T12:18:25.992Z,25.19
2022-09-12T12:21:37.978Z,24.80
2022-09-12T12:25:09.117Z,24.59
2022-09-12T12:28:11.550Z,24.89
2022-09-12T12:31:13.822Z,26.63
2022-09-12T12:34:36.570Z,28.50
2022-09-12T12:37:41.591Z,30.88
2022-09-12T12:40:43.788Z,32.04
2022-09-12T12:43:56.126Z,33.74
2022-09-12T12:47:15.642Z,31.37
2022-09-12T12:50:19.570Z,31.32
2022-09-12T12:53:27.873Z,29.48
2022-09-12T12:56:34.831Z,28.43
2022-09-12T12:59:37.374Z,29.84
2022-09-12T13:03:07.005Z,28.24
2022-09-12T13:06:25.773Z,27.51
2022-09-12T13:09:52.614Z,27.98
2022-09-12T13:12:57.799Z,27.48
2022-09-12T13:16:00.359Z,30.34
2022-09-12T13:19:06.435Z,31.49
2022-09-12T13:22:10.355Z,34.01
2022-09-12T13:25:29.336Z,34.11
2022-09-12T13:28:31.689Z,33.13
2022-09-12T13:31:34.107Z,31.06
2022-09-12T13:34:58.441Z,29.12
2022-09-12T13:38:24.550Z,27.10
2022-09-12T13:41:29.791Z,25.94
2022-09-12T13:44:42.606Z,25.19
2022-09-12T13:47:46.781Z,24.79
2022-09-12T13:51:01.589Z,24.93
2022-09-12T13:54:05.580Z,25.44
2022-09-12T13:57:27.189Z,25.77
2022-09-12T14:00:32.031Z,27.81
2022-09-12T14:04:00.356Z,28.29
2022-09-12T14:07:14.055Z,26.75
2022-09-12T14:10:21.696Z,26.04
2022-09-12T14:13:26.373Z,25.84
2022-09-12T14:16:31.156Z,25.49
2022-09-12T14:19:34.504Z,25.46
2022-09-12T14:22:38.838Z,25.39
2022-09-12T14:25:43.010Z,24.98
2022-09-12T14:28:49.723Z,24.47
2022-09-12T14:32:03.656Z,25.61
2022-09-12T14:35:07.088Z,26.90
2022-09-12T14:38:15.382Z,27.33
2022-09-12T14:41:36.732Z,26.18
2022-09-12T14:44:40.859Z,25.44
2022-09-12T14:47:47.832Z,27.58
2022-09-12T14:50:52.159Z,26.36
2022-09-12T14:53:54.786Z,25.16
2022-09-12T14:57:03.122Z,24.93
2022-09-12T15:00:11.972Z,24.69
2022-09-12T15:03:27.723Z,24.58
2022-09-12T15:06:32.685Z,24.31
2022-09-12T15:09:35.086Z,24.41
2022-09-12T15:12:37.259Z,24.44
2022-09-12T15:15:41.770Z,24.62
2022-09-12T15:18:44.030Z,25.98
2022-09-12T15:21:46.284Z,27.15
2022-09-12T15:24:48.637Z,27.35
2022-09-12T15:27:52.741Z,27.10
2022-09-12T15:30:56.480Z,26.28
2022-09-12T15:34:00.917Z,26.02
2022-09-12T15:37:05.640Z,26.08
2022-09-12T15:40:09.356Z,25.54
2022-09-12T15:43:13.537Z,25.40
2022-09-12T15:46:17.982Z,25.02
2022-09-12T15:49:20.180Z,24.71
2022-09-12T15:52:22.347Z,24.64
2022-09-12T15:55:29.198Z,24.47
2022-09-12T15:58:31.468Z,24.35
2022-09-12T16:01:33.717Z,24.11
2022-09-12T16:04:35.895Z,24.04
2022-09-12T16:07:38.073Z,23.77
2022-09-12T16:10:43.323Z,23.60
2022-09-12T16:13:45.569Z,23.47
2022-09-12T16:16:54.675Z,23.46
2022-09-12T16:19:59.720Z,23.29
2022-09-12T16:23:01.939Z,23.23
2022-09-12T16:26:06.102Z,23.11
2022-09-12T16:29:10.551Z,23.05
2022-09-12T16:32:12.703Z,22.97
2022-09-12T16:35:14.943Z,22.68
2022-09-12T16:38:20.553Z,22.46
2022-09-12T16:41:27.555Z,22.39
2022-09-12T16:44:29.728Z,22.06
2022-09-12T16:47:32.927Z,21.83
2022-09-12T16:50:35.236Z,21.66
2022-09-12T16:53:38.818Z,21.56
2022-09-12T16:56:41.477Z,21.42
2022-09-12T16:59:43.711Z,21.34
2022-09-12T17:02:45.956Z,21.21
2022-09-12T17:05:57.908Z,20.98
2022-09-12T17:09:03.354Z,20.86
2022-09-12T17:12:05.712Z,20.39
2022-09-12T17:15:08.515Z,20.32
2022-09-12T17:18:10.720Z,20.40
2022-09-12T17:21:13.960Z,20.08
2022-09-12T17:24:17.780Z,19.79
2022-09-12T17:27:20.269Z,19.55
2022-09-12T17:30:22.442Z,19.55
2022-09-12T17:33:25.664Z,19.41
2022-09-12T17:36:28.710Z,19.43
2022-09-12T17:39:30.872Z,19.38
2022-09-12T17:42:33.031Z,19.35
2022-09-12T17:45:35.265Z,19.09
2022-09-12T17:48:37.791Z,19.03
2022-09-12T17:51:40.660Z,18.82
2022-09-12T17:54:42.899Z,18.71
2022-09-12T17:57:45.362Z,18.58
2022-09-12T18:01:06.223Z,18.37
2022-09-12T18:04:08.721Z,18.10
2022-09-12T18:07:11.361Z,17.94
2022-09-12T18:10:13.800Z,17.76
2022-09-12T18:13:16.338Z,17.65
2022-09-12T18:16:18.550Z,17.65
2022-09-12T18:19:21.014Z,17.81
2022-09-12T18:22:23.195Z,17.69
2022-09-12T18:25:25.682Z,17.57
2022-09-12T18:28:28.364Z,17.69
2022-09-12T18:31:31.223Z,17.53
2022-09-12T18:34:33.453Z,17.46
2022-09-12T18:37:35.623Z,17.42
2022-09-12T18:40:37.836Z,17.29
2022-09-12T18:43:40.376Z,17.22
2022-09-12T18:46:42.650Z,17.20
2022-09-12T18:49:44.878Z,17.15
2022-09-12T18:52:47.039Z,16.98
2022-09-12T18:55:49.229Z,16.77
2022-09-12T18:58:55.134Z,16.64
2022-09-12T19:01:58.013Z,16.56
2022-09-12T19:05:00.336Z,16.81
2022-09-12T19:08:02.718Z,16.79
2022-09-12T19:11:06.184Z,16.72
2022-09-12T19:14:08.530Z,16.75
2022-09-12T19:17:10.897Z,16.74
2022-09-12T19:20:13.077Z,16.68
2022-09-12T19:23:15.239Z,16.63
2022-09-12T19:26:18.780Z,16.70
2022-09-12T19:29:21.011Z,16.75
2022-09-12T19:32:23.496Z,16.84
2022-09-12T19:35:25.679Z,16.81
2022-09-12T19:38:28.092Z,16.43
2022-09-12T19:41:30.603Z,16.34
2022-09-12T19:44:32.772Z,16.20
2022-09-12T19:47:34.924Z,15.85
2022-09-12T19:50:37.115Z,15.51
2022-09-12T19:53:39.581Z,15.45
2022-09-12T19:56:41.815Z,15.44
2022-09-12T19:59:45.142Z,15.21
2022-09-12T20:02:51.792Z,15.20
2022-09-12T20:05:53.938Z,15.35
2022-09-12T20:08:56.425Z,15.35
2022-09-12T20:11:58.631Z,15.34
2022-09-12T20:15:00.788Z,15.39
2022-09-12T20:18:03.040Z,15.42
2022-09-12T20:21:11.065Z,15.41
2022-09-12T20:24:15.740Z,15.34
2022-09-12T20:27:18.350Z,15.04
2022-09-12T20:30:20.527Z,14.93
2022-09-12T20:33:22.700Z,15.00
2022-09-12T20:36:25.755Z,15.10
2022-09-12T20:39:28.256Z,15.47
2022-09-12T20:42:30.437Z,15.62
2022-09-12T20:45:32.886Z,15.61
2022-09-12T20:48:35.443Z,15.42
2022-09-12T20:51:37.755Z,15.12
2022-09-12T20:54:39.912Z,15.06
2022-09-12T20:57:42.087Z,15.00
2022-09-12T21:00:44.258Z,14.90
2022-09-12T21:03:46.990Z,14.90
2022-09-12T21:06:49.299Z,14.86
2022-09-12T21:09:51.463Z,14.90
2022-09-12T21:13:00.292Z,14.98
2022-09-12T21:16:03.563Z,15.16
2022-09-12T21:19:12.275Z,15.25
2022-09-12T21:22:14.553Z,15.39
2022-09-12T21:25:16.717Z,15.24
2022-09-12T21:28:19.128Z,14.80
2022-09-12T21:31:22.020Z,14.63
2022-09-12T21:34:26.468Z,14.75
2022-09-12T21:37:28.693Z,14.66
2022-09-12T21:40:30.918Z,14.75
2022-09-12T21:43:33.167Z,14.70
2022-09-12T21:46:35.420Z,14.65
2022-09-12T21:49:37.612Z,14.75
2022-09-12T21:52:39.953Z,14.73
2022-09-12T21:55:42.302Z,14.72
2022-09-12T21:58:44.475Z,14.46
2022-09-12T22:01:47.024Z,14.36
2022-09-12T22:04:50.076Z,14.32
2022-09-12T22:07:52.703Z,14.29
2022-09-12T22:11:04.491Z,14.08
2022-09-12T22:14:06.645Z,14.11
2022-09-12T22:17:11.378Z,14.19
2022-09-12T22:20:13.540Z,14.33
2022-09-12T22:23:37.636Z,14.42
2022-09-12T22:26:44.643Z,14.50
2022-09-12T22:29:49.586Z,14.50
2022-09-12T22:32:51.819Z,14.39
2022-09-12T22:35:54.001Z,14.40
2022-09-12T22:38:57.212Z,14.22
2022-09-12T22:41:59.445Z,14.29
2022-09-12T22:45:01.811Z,14.15
2022-09-12T22:48:07.317Z,13.98
2022-09-12T22:51:12.015Z,13.77
2022-09-12T22:54:14.256Z,13.74
2022-09-12T22:57:16.799Z,13.89
2022-09-12T23:00:19.744Z,14.01
2022-09-12T23:03:22.390Z,13.92
2022-09-12T23:06:25.721Z,13.92
2022-09-12T23:09:30.967Z,13.89
2022-09-12T23:12:35.481Z,13.84
2022-09-12T23:15:37.829Z,13.78
2022-09-12T23:18:40.011Z,13.77
2022-09-12T23:21:42.213Z,13.82
2022-09-12T23:24:44.534Z,13.94
2022-09-12T23:27:47.117Z,13.85
2022-09-12T23:30:54.755Z,13.79
2022-09-12T23:33:58.798Z,13.50
2022-09-12T23:37:00.976Z,13.36
2022-09-12T23:40:03.927Z,13.34
2022-09-12T23:43:06.186Z,13.57
2022-09-12T23:46:08.578Z,13.60
2022-09-12T23:49:10.813Z,13.50
2022-09-12T23:52:13.023Z,13.39
2022-09-12T23:55:15.791Z,13.43
2022-09-12T23:58:18.120Z,13.43
